createdAt,value
2018-11-20T00:02:02.622Z,30.67
2018-11-20T00:04:52.653Z,32.37
2018-11-20T00:07:42.629Z,27.20
2018-11-20T00:10:32.843Z,31.03
2018-11-20T00:13:41.796Z,30.17
2018-11-20T00:16:31.916Z,32.10
2018-11-20T00:19:21.962Z,33.13
2018-11-20T00:22:12.062Z,30.70
2018-11-20T00:25:02.065Z,32.50
2018-11-20T00:28:10.972Z,33.57
2018-11-20T00:31:01.234Z,28.37
2018-11-20T00:33:51.190Z,30.10
2018-11-20T00:36:41.184Z,34.97
2018-11-20T00:39:31.227Z,32.50
2018-11-20T00:42:21.206Z,30.60
2018-11-20T00:45:11.305Z,33.13
2018-11-20T00:48:01.267Z,30.23
2018-11-20T00:50:51.416Z,33.80
2018-11-20T00:53:41.387Z,32.30
2018-11-20T00:56:54.231Z,31.80
2018-11-20T00:59:45.494Z,34.23
2018-11-20T01:02:35.602Z,31.43
2018-11-20T01:05:16.527Z,33.00
2018-11-20T01:08:06.509Z,30.50
2018-11-20T01:10:56.507Z,29.10
2018-11-20T01:13:46.647Z,33.40
2018-11-20T01:16:36.613Z,31.77
2018-11-20T01:19:26.561Z,28.93
2018-11-20T01:22:16.672Z,30.53
2018-11-20T01:25:06.759Z,32.50
2018-11-20T01:27:51.748Z,30.37
2018-11-20T01:31:00.625Z,31.77
2018-11-20T01:33:50.690Z,30.27
2018-11-20T01:36:40.845Z,28.33
2018-11-20T01:39:30.923Z,32.37
2018-11-20T01:42:20.989Z,29.13
2018-11-20T01:45:11.101Z,30.10
2018-11-20T01:47:54.451Z,31.70
2018-11-20T01:51:03.374Z,35.10
2018-11-20T01:57:03.621Z,32.40
2018-11-20T01:59:53.723Z,31.37
2018-11-20T02:02:34.551Z,33.60
2018-11-20T02:05:25.259Z,29.97
2018-11-20T02:08:15.357Z,33.93
2018-11-20T02:11:05.493Z,27.93
2018-11-20T02:14:22.280Z,30.67
2018-11-20T02:17:14.795Z,31.33
2018-11-20T02:20:04.723Z,31.20
2018-11-20T02:22:54.761Z,30.73
2018-11-20T02:26:03.681Z,31.43
2018-11-20T02:28:53.807Z,32.03
2018-11-20T02:31:43.837Z,30.67
2018-11-20T02:34:33.995Z,30.67
2018-11-20T02:37:24.025Z,32.20
2018-11-20T02:40:14.093Z,31.70
2018-11-20T02:43:04.232Z,31.60
2018-11-20T02:45:47.813Z,30.00
2018-11-20T02:48:37.939Z,29.97
2018-11-20T02:51:46.874Z,32.70
2018-11-20T02:54:36.879Z,28.60
2018-11-20T02:57:27.007Z,32.73
2018-11-20T03:00:17.055Z,31.63
2018-11-20T03:03:07.147Z,30.83
2018-11-20T03:05:57.188Z,31.03
2018-11-20T03:08:47.294Z,34.23
2018-11-20T03:11:37.381Z,35.00
2018-11-20T03:14:27.385Z,31.73
2018-11-20T03:17:17.347Z,31.23
2018-11-20T03:20:07.415Z,35.97
2018-11-20T03:23:16.289Z,29.23
2018-11-20T03:26:06.445Z,28.97
2018-11-20T03:29:16.957Z,29.93
2018-11-20T03:32:00.272Z,31.30
2018-11-20T03:34:50.238Z,31.97
2018-11-20T03:37:59.167Z,32.73
2018-11-20T03:40:49.257Z,30.47
2018-11-20T03:43:39.347Z,30.40
2018-11-20T03:46:29.324Z,32.37
2018-11-20T03:49:38.238Z,31.87
2018-11-20T03:52:28.154Z,31.73
2018-11-20T03:55:37.081Z,33.30
2018-11-20T03:58:27.060Z,32.83
2018-11-20T04:01:17.135Z,30.40
2018-11-20T04:04:07.268Z,31.07
2018-11-20T04:06:57.353Z,28.63
2018-11-20T04:09:47.391Z,29.63
2018-11-20T04:12:37.490Z,28.83
2018-11-20T04:15:46.464Z,29.53
2018-11-20T04:18:36.752Z,31.90
2018-11-20T04:21:26.698Z,31.90
2018-11-20T04:24:16.892Z,32.20
2018-11-20T04:27:06.966Z,32.87
2018-11-20T04:30:15.909Z,29.70
2018-11-20T04:33:43.782Z,30.43
2018-11-20T04:36:33.860Z,31.30
2018-11-20T04:39:20.124Z,29.73
2018-11-20T04:42:10.144Z,30.77
2018-11-20T04:45:00.286Z,34.77
2018-11-20T04:47:50.280Z,29.33
2018-11-20T04:50:40.230Z,30.50
2018-11-20T04:53:24.396Z,30.37
2018-11-20T04:56:14.550Z,32.57
2018-11-20T04:59:04.655Z,31.80
2018-11-20T05:01:54.642Z,29.70
2018-11-20T05:04:40.260Z,27.70
2018-11-20T05:07:30.402Z,28.33
2018-11-20T05:10:20.455Z,32.50
2018-11-20T05:13:13.427Z,31.00
2018-11-20T05:16:22.331Z,30.90
2018-11-20T05:22:21.752Z,27.27
2018-11-20T05:25:11.818Z,28.03
2018-11-20T05:28:02.029Z,29.33
2018-11-20T05:30:52.002Z,30.00
2018-11-20T05:33:42.076Z,30.97
2018-11-20T05:36:32.146Z,30.50
2018-11-20T05:39:41.094Z,30.10
2018-11-20T05:42:31.136Z,32.60
2018-11-20T05:45:21.230Z,28.50
2018-11-20T05:48:11.161Z,26.83
2018-11-20T05:51:01.167Z,26.90
2018-11-20T05:53:51.334Z,26.37
2018-11-20T05:56:41.450Z,26.57
2018-11-20T05:59:31.506Z,27.57
2018-11-20T06:02:21.725Z,22.83
2018-11-20T06:05:11.779Z,25.87
2018-11-20T06:08:01.767Z,24.53
2018-11-20T06:10:43.501Z,28.13
2018-11-20T06:13:33.586Z,24.47
2018-11-20T06:16:30.901Z,23.47
2018-11-20T06:19:16.980Z,24.57
2018-11-20T06:22:07.166Z,24.97
2018-11-20T06:25:16.117Z,24.13
2018-11-20T06:28:06.273Z,24.00
2018-11-20T06:30:56.461Z,23.90
2018-11-20T06:33:46.591Z,23.17
2018-11-20T06:36:36.564Z,27.50
2018-11-20T06:39:31.850Z,27.40
2018-11-20T06:42:22.100Z,25.20
2018-11-20T06:45:12.264Z,24.90
2018-11-20T06:48:21.223Z,22.90
2018-11-20T06:51:11.414Z,23.40
2018-11-20T06:54:01.415Z,26.03
2018-11-20T06:56:51.462Z,21.90
2018-11-20T06:59:41.537Z,22.40
2018-11-20T07:02:31.535Z,23.03
2018-11-20T07:05:21.549Z,21.33
2018-11-20T07:08:11.568Z,22.27
2018-11-20T07:10:52.555Z,22.57
2018-11-20T07:13:47.491Z,22.20
2018-11-20T07:16:57.102Z,21.93
2018-11-20T07:19:49.566Z,20.33
2018-11-20T07:22:39.760Z,20.17
2018-11-20T07:25:29.774Z,21.07
2018-11-20T07:28:19.869Z,20.93
2018-11-20T07:34:44.780Z,18.33
2018-11-20T07:37:34.884Z,17.93
2018-11-20T07:40:25.952Z,18.70
2018-11-20T07:43:16.071Z,19.60
2018-11-20T07:46:24.958Z,18.20
2018-11-20T07:49:09.574Z,16.03
2018-11-20T07:51:59.573Z,21.70
2018-11-20T07:55:08.518Z,18.43
2018-11-20T07:57:51.986Z,17.63
2018-11-20T08:00:42.021Z,19.50
2018-11-20T08:03:32.036Z,20.93
2018-11-20T08:06:22.179Z,19.47
2018-11-20T08:09:31.056Z,21.53
2018-11-20T08:12:21.233Z,20.07
2018-11-20T08:15:30.225Z,22.03
2018-11-20T08:18:20.154Z,21.70
2018-11-20T08:20:59.399Z,21.93
2018-11-20T08:23:49.495Z,22.40
2018-11-20T08:26:58.548Z,24.73
2018-11-20T08:29:48.590Z,27.53
2018-11-20T08:32:57.409Z,24.07
2018-11-20T08:35:47.564Z,25.47
2018-11-20T08:38:40.426Z,27.90
2018-11-20T08:41:30.498Z,26.33
2018-11-20T08:44:20.543Z,28.20
2018-11-20T08:47:10.643Z,29.47
2018-11-20T08:50:00.814Z,30.53
2018-11-20T08:52:50.767Z,29.53
2018-11-20T08:55:40.780Z,33.20
2018-11-20T08:58:30.868Z,35.50
2018-11-20T09:01:21.104Z,43.23
2018-11-20T09:04:11.168Z,35.37
2018-11-20T09:07:01.235Z,38.20
2018-11-20T09:09:51.274Z,37.27
2018-11-20T09:12:41.324Z,42.40
2018-11-20T09:15:50.242Z,42.53
2018-11-20T09:18:40.454Z,37.00
2018-11-20T09:21:30.457Z,37.23
2018-11-20T09:24:20.488Z,36.47
2018-11-20T09:27:10.494Z,32.23
2018-11-20T09:30:00.529Z,31.70
2018-11-20T09:32:53.562Z,29.37
2018-11-20T09:35:43.702Z,26.13
2018-11-20T09:38:33.580Z,24.90
2018-11-20T09:41:23.690Z,23.70
2018-11-20T09:44:51.471Z,23.00
2018-11-20T09:47:41.487Z,22.90
2018-11-20T09:50:33.220Z,17.80
2018-11-20T09:53:23.275Z,19.23
2018-11-20T09:56:14.254Z,17.87
2018-11-20T09:59:04.469Z,20.23
2018-11-20T10:01:54.500Z,18.10
2018-11-20T10:05:03.384Z,20.90
2018-11-20T10:07:53.498Z,15.37
2018-11-20T10:10:43.561Z,13.87
2018-11-20T10:13:52.444Z,14.80
2018-11-20T10:17:01.320Z,14.10
2018-11-20T10:19:51.368Z,14.50
2018-11-20T10:22:41.445Z,12.40
2018-11-20T10:25:31.588Z,11.40
2018-11-20T10:28:21.613Z,12.47
2018-11-20T10:31:11.659Z,11.03
2018-11-20T10:34:01.655Z,11.30
2018-11-20T10:36:51.732Z,9.57
2018-11-20T10:39:41.809Z,11.17
2018-11-20T10:42:31.925Z,11.17
2018-11-20T10:45:22.011Z,12.10
2018-11-20T10:48:31.766Z,10.13
2018-11-20T10:51:21.747Z,8.43
2018-11-20T10:54:11.764Z,9.40
2018-11-20T10:57:20.660Z,9.80
2018-11-20T11:00:29.535Z,9.90
2018-11-20T11:03:19.513Z,11.33
2018-11-20T11:06:09.630Z,10.17
2018-11-20T11:09:18.490Z,8.97
2018-11-20T11:12:08.847Z,9.30
2018-11-20T11:14:58.865Z,8.90
2018-11-20T11:17:48.835Z,10.90
2018-11-20T11:20:57.935Z,11.43
2018-11-20T11:23:47.870Z,9.93
2018-11-20T11:26:56.746Z,10.67
2018-11-20T11:30:05.656Z,11.00
2018-11-20T11:32:55.931Z,10.17
2018-11-20T11:36:04.775Z,9.67
2018-11-20T11:38:54.849Z,9.83
2018-11-20T11:41:45.060Z,11.60
2018-11-20T11:44:35.069Z,10.53
2018-11-20T11:47:25.347Z,10.47
2018-11-20T11:50:15.396Z,10.33
2018-11-20T11:53:05.506Z,10.17
2018-11-20T11:55:55.504Z,9.87
2018-11-20T11:58:45.489Z,11.03
2018-11-20T12:04:24.791Z,12.77
2018-11-20T12:07:33.736Z,10.53
2018-11-20T12:10:24.051Z,10.77
2018-11-20T12:16:03.350Z,10.77
2018-11-20T12:18:54.328Z,10.67
2018-11-20T12:21:43.387Z,10.60
2018-11-20T12:24:33.576Z,11.03
2018-11-20T12:27:23.666Z,10.83
2018-11-20T12:30:15.619Z,10.77
2018-11-20T12:33:03.713Z,11.20
2018-11-20T12:35:54.584Z,10.77
2018-11-20T12:38:43.908Z,9.53
2018-11-20T12:41:34.901Z,10.37
2018-11-20T12:47:34.578Z,10.83
2018-11-20T12:50:26.240Z,10.30
2018-11-20T12:53:15.102Z,10.03
2018-11-20T12:56:05.234Z,11.20
2018-11-20T12:59:06.991Z,9.03
2018-11-20T13:02:09.248Z,8.87
2018-11-20T13:04:55.941Z,9.73
2018-11-20T13:07:46.112Z,11.47
2018-11-20T13:10:36.112Z,9.33
2018-11-20T13:13:26.237Z,9.77
2018-11-20T13:16:16.300Z,8.90
2018-11-20T13:19:06.421Z,9.43
2018-11-20T13:21:56.472Z,8.37
2018-11-20T13:24:46.552Z,11.57
2018-11-20T13:27:36.638Z,8.37
2018-11-20T13:30:45.645Z,11.83
2018-11-20T13:33:35.714Z,9.37
2018-11-20T13:36:25.892Z,8.70
2018-11-20T13:39:15.823Z,7.13
2018-11-20T13:41:52.756Z,9.80
2018-11-20T13:44:45.283Z,7.87
2018-11-20T13:47:35.373Z,7.77
2018-11-20T13:50:26.443Z,8.53
2018-11-20T13:53:35.396Z,8.67
2018-11-20T13:56:25.777Z,9.20
2018-11-20T13:59:34.709Z,9.13
2018-11-20T14:02:43.912Z,9.90
2018-11-20T14:05:34.052Z,11.30
2018-11-20T14:08:25.325Z,9.00
2018-11-20T14:11:06.942Z,10.07
2018-11-20T14:13:56.923Z,8.33
2018-11-20T14:16:46.965Z,10.90
2018-11-20T14:19:37.031Z,9.13
2018-11-20T14:22:27.324Z,10.53
2018-11-20T14:25:17.424Z,11.33
2018-11-20T14:28:07.593Z,10.87
2018-11-20T14:31:06.843Z,9.40
2018-11-20T14:33:56.936Z,10.87
2018-11-20T14:36:47.054Z,11.67
2018-11-20T14:39:39.624Z,12.17
2018-11-20T14:42:29.703Z,10.70
2018-11-20T14:45:38.103Z,11.80
2018-11-20T14:48:23.460Z,12.53
2018-11-20T14:51:13.501Z,11.27
2018-11-20T14:54:03.467Z,14.23
2018-11-20T14:56:53.573Z,11.73
2018-11-20T14:59:36.997Z,13.27
2018-11-20T15:02:27.079Z,12.13
2018-11-20T15:05:17.151Z,13.27
2018-11-20T15:08:07.253Z,13.77
2018-11-20T15:10:57.287Z,10.87
2018-11-20T15:13:47.577Z,14.90
2018-11-20T15:16:56.417Z,13.27
2018-11-20T15:19:46.443Z,12.60
2018-11-20T15:22:36.503Z,14.77
2018-11-20T15:25:45.375Z,13.70
2018-11-20T15:28:35.374Z,13.07
2018-11-20T15:31:23.737Z,13.73
2018-11-20T15:34:32.664Z,11.90
2018-11-20T15:37:22.839Z,13.53
2018-11-20T15:40:31.150Z,13.83
2018-11-20T15:43:41.536Z,13.67
2018-11-20T15:46:50.374Z,15.87
2018-11-20T15:49:59.222Z,13.17
2018-11-20T15:52:58.318Z,14.40
2018-11-20T15:56:07.177Z,15.10
2018-11-20T15:58:57.272Z,14.47
2018-11-20T16:01:47.368Z,12.77
2018-11-20T16:04:37.447Z,13.33
2018-11-20T16:07:27.473Z,14.07
2018-11-20T16:10:17.506Z,14.43
2018-11-20T16:13:04.710Z,16.77
2018-11-20T16:16:13.964Z,13.63
2018-11-20T16:19:04.046Z,14.80
2018-11-20T16:22:13.730Z,16.07
2018-11-20T16:25:03.837Z,15.03
2018-11-20T16:27:54.000Z,15.80
2018-11-20T16:31:02.894Z,14.83
2018-11-20T16:34:11.895Z,15.30
2018-11-20T16:36:57.778Z,15.10
2018-11-20T16:39:47.916Z,14.97
2018-11-20T16:42:38.029Z,16.87
2018-11-20T16:45:28.603Z,18.53
2018-11-20T16:48:26.203Z,16.10
2018-11-20T16:51:16.236Z,15.97
2018-11-20T16:54:29.857Z,15.97
2018-11-20T16:57:40.170Z,16.73
2018-11-20T17:00:50.305Z,16.03
2018-11-20T17:03:40.285Z,15.77
2018-11-20T17:06:49.446Z,14.90
2018-11-20T17:09:39.539Z,16.63
2018-11-20T17:12:29.564Z,16.07
2018-11-20T17:15:19.708Z,16.70
2018-11-20T17:18:09.788Z,15.70
2018-11-20T17:21:01.664Z,16.90
2018-11-20T17:23:51.826Z,17.40
2018-11-20T17:26:41.935Z,21.63
2018-11-20T17:29:31.943Z,15.80
2018-11-20T17:32:21.986Z,18.50
2018-11-20T17:35:22.632Z,16.97
2018-11-20T17:38:14.196Z,19.53
2018-11-20T17:41:04.280Z,17.03
2018-11-20T17:43:54.521Z,16.43
2018-11-20T17:46:44.688Z,15.53
2018-11-20T17:49:34.911Z,18.67
2018-11-20T17:52:25.128Z,19.60
2018-11-20T17:55:15.251Z,18.03
2018-11-20T17:58:05.347Z,18.97
2018-11-20T18:01:01.646Z,22.10
2018-11-20T18:03:51.737Z,20.23
2018-11-20T18:06:52.011Z,20.70
2018-11-20T18:09:42.153Z,18.30
2018-11-20T18:12:32.229Z,19.33
2018-11-20T18:15:20.891Z,19.80
2018-11-20T18:18:09.405Z,20.90
2018-11-20T18:20:59.430Z,22.17
2018-11-20T18:24:08.515Z,20.97
2018-11-20T18:26:58.696Z,21.77
2018-11-20T18:30:04.837Z,26.47
2018-11-20T18:33:13.798Z,25.83
2018-11-20T18:36:04.034Z,23.57
2018-11-20T18:38:54.067Z,24.33
2018-11-20T18:41:47.022Z,26.57
2018-11-20T18:44:37.069Z,24.33
2018-11-20T18:47:27.408Z,22.93
2018-11-20T18:50:17.422Z,24.13
2018-11-20T18:53:07.551Z,25.07
2018-11-20T18:55:58.086Z,29.20
2018-11-20T18:58:48.260Z,26.17
2018-11-20T19:01:57.141Z,26.13
2018-11-20T19:05:06.147Z,27.83
2018-11-20T19:07:53.933Z,24.87
2018-11-20T19:10:43.950Z,29.20
2018-11-20T19:13:34.067Z,28.70
2018-11-20T19:16:24.640Z,27.43
2018-11-20T19:19:33.644Z,29.13
2018-11-20T19:22:42.596Z,28.77
2018-11-20T19:25:51.584Z,31.37
2018-11-20T19:28:41.641Z,32.13
2018-11-20T19:31:31.759Z,34.17
2018-11-20T19:34:13.195Z,32.43
2018-11-20T19:37:03.328Z,29.80
2018-11-20T19:39:52.082Z,27.80
2018-11-20T19:42:42.113Z,33.77
2018-11-20T19:45:51.150Z,32.73
2018-11-20T19:48:41.388Z,34.00
2018-11-20T19:51:50.300Z,31.57
2018-11-20T19:54:43.310Z,26.77
2018-11-20T19:57:34.352Z,33.70
2018-11-20T20:00:24.529Z,29.77
2018-11-20T20:03:12.947Z,29.83
2018-11-20T20:06:08.682Z,33.47
2018-11-20T20:09:17.676Z,37.37
2018-11-20T20:12:07.761Z,35.87
2018-11-20T20:14:57.988Z,28.80
2018-11-20T20:17:48.225Z,34.30
2018-11-20T20:20:38.850Z,29.93
2018-11-20T20:23:28.962Z,32.63
2018-11-20T20:26:37.859Z,31.23
2018-11-20T20:29:27.960Z,28.40
2018-11-20T20:32:18.060Z,31.70
2018-11-20T20:35:08.159Z,27.83
2018-11-20T20:37:58.344Z,31.97
2018-11-20T20:40:48.331Z,27.50
2018-11-20T20:43:38.411Z,30.23
2018-11-20T20:46:28.428Z,31.80
2018-11-20T20:49:18.481Z,29.63
2018-11-20T20:52:08.572Z,30.57
2018-11-20T20:54:58.694Z,30.87
2018-11-20T20:57:48.826Z,30.87
2018-11-20T21:00:38.956Z,28.67
2018-11-20T21:03:28.986Z,31.40
2018-11-20T21:06:19.137Z,32.13
2018-11-20T21:12:18.543Z,33.73
2018-11-20T21:15:08.593Z,34.23
2018-11-20T21:17:58.815Z,33.40
2018-11-20T21:20:48.922Z,37.27
2018-11-20T21:23:39.105Z,34.50
2018-11-20T21:26:23.762Z,33.90
2018-11-20T21:29:13.888Z,35.07
2018-11-20T21:32:03.900Z,29.97
2018-11-20T21:34:55.245Z,33.13
2018-11-20T21:37:41.929Z,30.90
2018-11-20T21:40:32.057Z,31.37
2018-11-20T21:43:22.095Z,32.33
2018-11-20T21:46:31.092Z,31.53
2018-11-20T21:49:21.229Z,33.43
2018-11-20T21:52:30.240Z,35.30
2018-11-20T21:55:20.338Z,31.37
2018-11-20T21:58:29.280Z,33.97
2018-11-20T22:01:39.634Z,30.47
2018-11-20T22:04:29.775Z,29.93
2018-11-20T22:07:19.900Z,31.63
2018-11-20T22:10:13.382Z,28.60
2018-11-20T22:13:00.035Z,29.90
2018-11-20T22:15:50.097Z,39.73
2018-11-20T22:18:40.191Z,40.93
2018-11-20T22:21:30.158Z,37.40
2018-11-20T22:24:28.823Z,35.40
2018-11-20T22:27:19.049Z,34.90
2018-11-20T22:30:09.057Z,36.40
2018-11-20T22:32:59.123Z,33.07
2018-11-20T22:35:49.267Z,33.30
2018-11-20T22:38:39.414Z,32.47
2018-11-20T22:41:29.624Z,42.33
2018-11-20T22:44:19.650Z,38.57
2018-11-20T22:47:09.805Z,34.70
2018-11-20T22:50:01.024Z,35.03
2018-11-20T22:53:10.086Z,42.40
2018-11-20T22:56:18.997Z,32.23
2018-11-20T22:59:09.013Z,40.33
2018-11-20T23:01:59.133Z,35.00
2018-11-20T23:05:07.093Z,36.50
2018-11-20T23:07:57.118Z,39.23
2018-11-20T23:10:29.524Z,39.40
2018-11-20T23:13:01.008Z,40.97
2018-11-20T23:15:32.487Z,35.90
2018-11-20T23:18:04.120Z,35.57
2018-11-20T23:20:35.793Z,39.27
2018-11-20T23:23:07.303Z,37.97
2018-11-20T23:25:38.854Z,31.23
2018-11-20T23:28:10.296Z,30.87
2018-11-20T23:30:41.827Z,33.47
2018-11-20T23:33:13.399Z,29.20
2018-11-20T23:35:44.795Z,32.97
2018-11-20T23:38:35.164Z,31.73
2018-11-20T23:41:06.665Z,32.00
2018-11-20T23:43:38.235Z,31.60
2018-11-20T23:46:10.100Z,29.97
2018-11-20T23:48:41.613Z,32.73
2018-11-20T23:51:13.063Z,31.07
2018-11-20T23:54:03.377Z,33.57
2018-11-20T23:56:34.823Z,33.40
2018-11-20T23:59:06.263Z,35.17
